Time;durP1;ratioP1;P1;durP2;ratioP2;P2;SDS_P1;SDS_P2;PMS_P1;PMS_P2;Temp;Humidity;BMP_temperature;BMP_pressure;BME280_temperature;BME280_humidity;BME280_pressure;Samples;Min_cycle;Max_cycle;Signal;HPM_P1;HPM_P2
2023/02/01 00:03:44;;;;;;;13.20;5.00;;;3.60;99.90;;;;;;20992833;28;20052;-77
2023/02/01 00:13:45;;;;;;;9.02;4.80;;;3.50;99.90;;;;;;20991925;28;20029;-76
2023/02/01 00:23:46;;;;;;;8.05;4.47;;;3.50;99.90;;;;;;20991545;28;20131;-76
2023/02/01 00:33:48;;;;;;;9.90;4.43;;;3.40;99.90;;;;;;20990842;28;20056;-76
2023/02/01 00:43:50;;;;;;;9.13;3.78;;;3.30;99.90;;;;;;21000154;28;20634;-77
2023/02/01 00:53:51;;;;;;;9.32;3.90;;;3.20;99.90;;;;;;21006238;28;20537;-77
2023/02/01 01:03:55;;;;;;;10.70;4.38;;;3.10;99.90;;;;;;21005756;28;20041;-77
2023/02/01 01:13:58;;;;;;;7.50;4.05;;;3.00;99.90;;;;;;20990539;28;20032;-77
2023/02/01 01:23:58;;;;;;;8.68;4.47;;;3.10;99.90;;;;;;21010765;28;20040;-77
2023/02/01 01:34:01;;;;;;;8.10;4.03;;;3.20;99.90;;;;;;21011959;28;20039;-78
2023/02/01 01:44:06;;;;;;;6.82;4.30;;;3.40;99.90;;;;;;20971460;28;20037;-77
2023/02/01 01:54:16;;;;;;;7.40;3.80;;;3.60;99.90;;;;;;20982544;28;20031;-77
2023/02/01 02:04:17;;;;;;;8.90;4.03;;;3.70;99.90;;;;;;20973243;28;20434;-77
2023/02/01 02:14:20;;;;;;;9.60;3.83;;;3.80;99.90;;;;;;20992184;28;20043;-77
2023/02/01 02:24:48;;;;;;;8.57;4.05;;;3.80;99.90;;;;;;20981953;28;20040;-77
2023/02/01 02:35:01;;;;;;;9.48;4.68;;;3.80;99.90;;;;;;20981153;28;20127;-77
2023/02/01 02:55:22;;;;;;;6.85;3.95;;;3.80;99.90;;;;;;20940676;28;20392;-76
2023/02/01 03:05:23;;;;;;;9.98;4.50;;;3.80;99.90;;;;;;20984035;28;20382;-77
2023/02/01 03:15:43;;;;;;;11.23;4.22;;;3.80;99.90;;;;;;20966208;28;20029;-76
2023/02/01 03:25:47;;;;;;;9.18;4.28;;;3.70;99.90;;;;;;20989564;28;20570;-76
2023/02/01 03:36:12;;;;;;;12.52;5.03;;;3.70;99.90;;;;;;20993201;28;20029;-76
2023/02/01 03:46:18;;;;;;;9.00;4.43;;;3.70;99.90;;;;;;20974889;28;20081;-77
2023/02/01 03:56:22;;;;;;;7.85;4.15;;;3.70;99.90;;;;;;20982316;28;20066;-75
2023/02/01 04:06:24;;;;;;;11.05;4.82;;;3.60;99.90;;;;;;20969175;28;20561;-77
2023/02/01 04:16:26;;;;;;;14.43;5.00;;;3.60;99.90;;;;;;20981403;28;20051;-77
2023/02/01 04:26:27;;;;;;;10.02;5.45;;;3.60;99.90;;;;;;20997457;28;20033;-75
2023/02/01 04:36:28;;;;;;;11.45;5.15;;;3.50;99.90;;;;;;20999825;28;20035;-76
2023/02/01 04:46:29;;;;;;;13.38;4.95;;;3.50;99.90;;;;;;20998327;28;20542;-76
2023/02/01 04:56:30;;;;;;;11.70;5.22;;;3.50;99.90;;;;;;20999610;28;20040;-77
2023/02/01 05:06:31;;;;;;;10.13;4.82;;;3.40;99.90;;;;;;21013831;28;20094;-76
2023/02/01 05:16:32;;;;;;;8.95;5.25;;;3.40;99.90;;;;;;20989421;28;20025;-76
2023/02/01 05:26:33;;;;;;;11.00;5.18;;;3.40;99.90;;;;;;21020564;28;20032;-77
2023/02/01 05:36:34;;;;;;;12.85;5.68;;;3.40;99.90;;;;;;21032905;28;20021;-78
2023/02/01 05:46:35;;;;;;;11.02;5.47;;;3.30;99.90;;;;;;21014065;28;20043;-76
2023/02/01 05:56:36;;;;;;;9.68;5.15;;;3.20;99.90;;;;;;21000992;28;20394;-77
2023/02/01 06:06:36;;;;;;;13.18;6.32;;;3.20;99.90;;;;;;21007539;28;20044;-77
2023/02/01 06:16:37;;;;;;;7.97;4.32;;;3.20;99.90;;;;;;21000948;28;20031;-77
2023/02/01 06:26:39;;;;;;;13.15;5.10;;;3.20;99.90;;;;;;21008192;28;20093;-75
2023/02/01 06:36:40;;;;;;;15.32;4.80;;;3.10;99.90;;;;;;21000960;28;20033;-77
2023/02/01 06:46:41;;;;;;;11.82;5.45;;;3.10;99.90;;;;;;20999854;28;20032;-76
2023/02/01 06:56:42;;;;;;;12.80;5.57;;;3.00;99.90;;;;;;20984234;28;20032;-76
2023/02/01 07:06:42;;;;;;;12.50;6.13;;;3.00;99.90;;;;;;20997319;28;20487;-76
2023/02/01 07:16:43;;;;;;;10.60;4.93;;;2.90;99.90;;;;;;20998442;28;20059;-76
2023/02/01 07:26:44;;;;;;;11.43;5.43;;;2.90;99.90;;;;;;20995158;28;20032;-77
2023/02/01 07:36:45;;;;;;;11.23;6.32;;;2.90;99.90;;;;;;20981463;28;20016;-76
2023/02/01 07:46:46;;;;;;;16.73;5.63;;;3.00;99.90;;;;;;20994032;28;20027;-76
2023/02/01 07:56:46;;;;;;;9.77;4.80;;;3.00;99.90;;;;;;20992494;28;20032;-76
2023/02/01 08:06:47;;;;;;;12.07;4.47;;;3.10;99.90;;;;;;20993708;28;20059;-76
2023/02/01 08:16:48;;;;;;;11.95;4.13;;;3.20;99.90;;;;;;20975297;28;20033;-76
2023/02/01 08:26:49;;;;;;;5.85;3.38;;;3.20;99.90;;;;;;20993493;28;20395;-75
2023/02/01 08:36:51;;;;;;;6.10;3.72;;;3.40;99.90;;;;;;20991258;28;20434;-77
2023/02/01 08:46:52;;;;;;;5.78;3.45;;;3.50;99.90;;;;;;20995055;28;20059;-75
2023/02/01 08:56:54;;;;;;;8.73;3.78;;;3.60;99.90;;;;;;20996541;28;20115;-77
2023/02/01 09:06:55;;;;;;;8.80;3.70;;;3.60;99.90;;;;;;21005059;28;20495;-76
2023/02/01 09:16:56;;;;;;;5.38;2.88;;;3.70;99.90;;;;;;21011013;28;20024;-77
2023/02/01 09:26:57;;;;;;;4.13;2.60;;;3.80;99.90;;;;;;21008860;28;20055;-76
2023/02/01 09:36:57;;;;;;;6.60;3.17;;;4.00;99.90;;;;;;21004646;28;20456;-76
2023/02/01 09:47:02;;;;;;;5.03;2.38;;;4.00;99.90;;;;;;21004081;28;20071;-76
2023/02/01 09:57:10;;;;;;;4.40;2.45;;;4.10;99.90;;;;;;21003234;28;20036;-77
2023/02/01 10:07:30;;;;;;;4.05;2.85;;;4.30;99.90;;;;;;21001800;28;20028;-76
2023/02/01 10:17:34;;;;;;;7.00;3.30;;;4.50;99.90;;;;;;21000401;28;20060;-76
2023/02/01 10:27:37;;;;;;;3.22;1.77;;;4.70;99.90;;;;;;20999926;28;20086;-77
2023/02/01 10:37:42;;;;;;;6.85;2.25;;;4.80;99.90;;;;;;21000936;28;20174;-76
2023/02/01 10:47:43;;;;;;;7.82;1.88;;;5.00;99.90;;;;;;21000505;28;20025;-76
2023/02/01 10:57:56;;;;;;;7.00;1.90;;;5.30;99.90;;;;;;20998723;28;20040;-76
2023/02/01 11:07:59;;;;;;;8.15;2.67;;;5.60;99.90;;;;;;20997851;28;20122;-78
2023/02/01 11:18:18;;;;;;;8.07;2.50;;;5.70;99.90;;;;;;21002027;28;20604;-77
2023/02/01 11:28:23;;;;;;;3.97;2.28;;;5.50;99.90;;;;;;20995148;28;20032;-77
2023/02/01 11:38:32;;;;;;;5.78;2.33;;;5.60;99.90;;;;;;21002149;28;20056;-76
2023/02/01 11:48:33;;;;;;;9.27;2.67;;;5.40;99.90;;;;;;20994639;28;20040;-76
2023/02/01 11:58:36;;;;;;;;;;;5.10;99.90;;;;;;20992296;28;20032;-77
2023/02/01 12:09:08;;;;;;;5.97;3.10;;;4.80;99.90;;;;;;20975664;28;20001;-77
2023/02/01 12:19:35;;;;;;;9.30;2.88;;;4.50;99.90;;;;;;20976371;28;20400;-76
2023/02/01 12:29:48;;;;;;;12.48;3.08;;;4.70;99.90;;;;;;20980878;28;20535;-76
2023/02/01 12:40:19;;;;;;;8.23;2.63;;;4.80;99.90;;;;;;20990877;28;20032;-77
2023/02/01 12:50:49;;;;;;;7.67;3.37;;;5.00;99.90;;;;;;20991003;28;20143;-76
2023/02/01 13:01:13;;;;;;;12.15;3.47;;;5.10;99.90;;;;;;20985049;28;20139;-76
2023/02/01 13:11:44;;;;;;;10.13;3.17;;;5.10;99.90;;;;;;20989728;28;20032;-76
2023/02/01 13:21:55;;;;;;;9.97;2.73;;;5.30;99.90;;;;;;20976688;28;20036;-76
2023/02/01 13:32:19;;;;;;;8.98;3.55;;;5.30;99.90;;;;;;20988703;28;20071;-75
2023/02/01 13:42:30;;;;;;;10.25;3.10;;;5.30;99.90;;;;;;20960470;28;20041;-76
2023/02/01 13:52:40;;;;;;;10.52;2.90;;;5.30;99.90;;;;;;20997055;28;20052;-75
2023/02/01 14:02:40;;;;;;;12.98;2.92;;;5.40;99.90;;;;;;21003353;28;20102;-76
2023/02/01 14:12:43;;;;;;;;;;;5.40;99.90;;;;;;20983603;28;20029;-76
2023/02/01 14:22:44;;;;;;;13.27;3.17;;;5.30;99.90;;;;;;21000073;28;19912;-76
2023/02/01 14:32:46;;;;;;;10.35;3.22;;;5.40;99.90;;;;;;21009752;28;20055;-76
2023/02/01 14:42:51;;;;;;;19.13;3.10;;;5.40;99.90;;;;;;21084378;28;20043;-75
2023/02/01 14:53:12;;;;;;;18.75;3.03;;;5.30;99.90;;;;;;21082223;28;20039;-76
2023/02/01 15:03:17;;;;;;;9.85;3.67;;;5.30;99.90;;;;;;21003413;28;20070;-76
2023/02/01 15:13:25;;;;;;;13.50;3.42;;;5.30;99.90;;;;;;20996323;28;20081;-76
2023/02/01 15:23:27;;;;;;;17.40;3.58;;;5.30;99.90;;;;;;20995606;28;20563;-76
2023/02/01 15:33:29;;;;;;;12.70;4.45;;;5.20;99.90;;;;;;20995979;28;20037;-75
2023/02/01 15:43:37;;;;;;;11.20;3.20;;;5.20;99.90;;;;;;20994853;28;20093;-75
2023/02/01 15:53:38;;;;;;;16.20;3.15;;;5.20;99.90;;;;;;20998384;28;20035;-76
2023/02/01 16:03:41;;;;;;;14.65;5.00;;;5.30;99.90;;;;;;20999412;28;20806;-76
2023/02/01 16:13:42;;;;;;;11.52;2.78;;;5.30;99.90;;;;;;21004996;28;20037;-76
2023/02/01 16:23:47;;;;;;;11.55;3.33;;;5.20;99.90;;;;;;21050981;28;20063;-76
2023/02/01 16:33:51;;;;;;;13.68;3.35;;;5.20;99.90;;;;;;20993743;28;20094;-76
2023/02/01 16:43:54;;;;;;;8.73;2.55;;;5.20;99.90;;;;;;20991055;28;20039;-75
2023/02/01 16:53:55;;;;;;;13.23;2.45;;;5.20;99.90;;;;;;20990244;28;20028;-75
2023/02/01 17:03:56;;;;;;;19.17;2.88;;;5.20;99.90;;;;;;20990478;28;20033;-75
2023/02/01 17:14:13;;;;;;;15.43;3.60;;;5.20;99.90;;;;;;20938606;28;20033;-76
2023/02/01 17:24:16;;;;;;;15.30;2.53;;;5.20;99.90;;;;;;20913885;28;20047;-76
2023/02/01 17:34:18;;;;;;;12.00;2.65;;;5.10;99.90;;;;;;20925446;28;20033;-77
2023/02/01 17:44:18;;;;;;;11.65;2.75;;;5.10;99.90;;;;;;20921221;28;20504;-75
2023/02/01 17:54:19;;;;;;;;;;;5.10;99.90;;;;;;20921359;28;20036;-75
2023/02/01 18:04:21;;;;;;;11.73;2.78;;;5.10;99.90;;;;;;20919750;28;19909;-75
2023/02/01 18:14:22;;;;;;;16.55;2.35;;;5.10;99.90;;;;;;20919250;28;20028;-74
2023/02/01 18:24:24;;;;;;;7.30;2.90;;;5.10;99.90;;;;;;20924972;28;20028;-75
2023/02/01 18:34:26;;;;;;;19.98;3.60;;;5.10;99.90;;;;;;21074934;28;20047;-76
2023/02/01 18:44:26;;;;;;;9.00;2.67;;;5.20;99.90;;;;;;21083152;28;20036;-76
2023/02/01 18:54:27;;;;;;;11.30;2.63;;;5.10;99.90;;;;;;21078225;28;20494;-76
2023/02/01 19:04:29;;;;;;;6.90;1.90;;;5.10;99.90;;;;;;20997477;28;20028;-76
2023/02/01 19:14:29;;;;;;;8.23;2.55;;;5.00;99.90;;;;;;20996950;28;20047;-75
2023/02/01 19:24:30;;;;;;;;;;;5.10;99.90;;;;;;20997109;28;20028;-76
2023/02/01 19:34:32;;;;;;;14.77;2.58;;;5.00;99.90;;;;;;20995671;28;19912;-76
2023/02/01 19:44:34;;;;;;;16.35;2.90;;;5.00;99.90;;;;;;20995037;28;20036;-75
2023/02/01 19:54:35;;;;;;;11.40;2.90;;;5.00;99.90;;;;;;20993563;28;20029;-77
2023/02/01 20:04:35;;;;;;;;;;;4.90;99.90;;;;;;20994282;28;20387;-76
2023/02/01 20:14:38;;;;;;;16.10;2.40;;;4.90;99.90;;;;;;20992827;28;19918;-76
2023/02/01 20:24:39;;;;;;;15.05;2.13;;;4.90;99.90;;;;;;20993577;28;20416;-77
2023/02/01 20:34:41;;;;;;;11.52;2.92;;;4.80;99.90;;;;;;20992494;28;20044;-76
2023/02/01 20:44:41;;;;;;;;;;;4.80;99.90;;;;;;20992095;28;20411;-76
2023/02/01 20:54:42;;;;;;;30.57;4.67;;;4.70;99.90;;;;;;20997099;28;19912;-76
2023/02/01 21:04:43;;;;;;;13.02;2.72;;;4.70;99.90;;;;;;21010917;28;20031;-76
2023/02/01 21:14:44;;;;;;;;;;;4.70;99.90;;;;;;21006749;28;20056;-77
2023/02/01 21:24:45;;;;;;;13.77;2.77;;;4.70;99.90;;;;;;21007073;28;19956;-76
2023/02/01 21:34:45;;;;;;;10.35;2.25;;;4.70;99.90;;;;;;21006223;28;20301;-76
2023/02/01 21:44:47;;;;;;;9.77;2.50;;;4.40;99.90;;;;;;21004483;28;20388;-76
2023/02/01 21:54:49;;;;;;;6.70;2.45;;;4.40;99.90;;;;;;21008257;28;20036;-77
2023/02/01 22:04:50;;;;;;;12.25;2.58;;;4.40;99.90;;;;;;21004824;28;20028;-77
2023/02/01 22:14:51;;;;;;;15.38;2.47;;;4.40;99.90;;;;;;21002064;28;20032;-76
2023/02/01 22:24:53;;;;;;;14.85;2.47;;;4.50;99.90;;;;;;21011920;28;20032;-77
2023/02/01 22:34:54;;;;;;;10.02;2.33;;;4.40;99.90;;;;;;21009563;28;20040;-76
2023/02/01 22:44:55;;;;;;;9.25;2.63;;;4.50;99.90;;;;;;20985854;28;20035;-77
2023/02/01 22:54:56;;;;;;;7.15;1.88;;;4.60;99.90;;;;;;20998870;28;20056;-76
2023/02/01 23:04:57;;;;;;;;;;;4.60;99.90;;;;;;20998088;28;20024;-76
2023/02/01 23:15:04;;;;;;;19.30;2.65;;;4.70;99.90;;;;;;21020129;28;19912;-76
2023/02/01 23:25:05;;;;;;;13.52;2.28;;;4.70;99.90;;;;;;21070683;28;20028;-75
2023/02/01 23:35:07;;;;;;;9.60;2.50;;;4.70;99.90;;;;;;20998348;28;20028;-77
2023/02/01 23:45:08;;;;;;;12.70;2.40;;;4.70;99.90;;;;;;20992474;28;20043;-77
2023/02/01 23:55:09;;;;;;;15.20;2.42;;;4.70;99.90;;;;;;20992911;28;20036;-77
